createdAt,value
2018-06-04T00:00:26.713Z,66.35
2018-06-04T00:01:26.594Z,65.49
2018-06-04T00:03:19.567Z,66.35
2018-06-04T00:04:19.449Z,65.11
2018-06-04T00:06:12.398Z,64.72
2018-06-04T00:07:12.302Z,65.11
2018-06-04T00:09:05.264Z,65.68
2018-06-04T00:10:05.160Z,65.68
2018-06-04T00:11:58.109Z,64.88
2018-06-04T00:12:58.014Z,65.01
2018-06-04T00:14:50.981Z,64.82
2018-06-04T00:15:50.871Z,63.35
2018-06-04T00:17:44.123Z,63.54
2018-06-04T00:18:44.012Z,63.64
2018-06-04T00:20:37.390Z,62.68
2018-06-04T00:21:36.880Z,63.45
2018-06-04T00:23:29.812Z,63.93
2018-06-04T00:24:29.723Z,64.31
2018-06-04T00:26:22.688Z,64.59
2018-06-04T00:27:22.572Z,64.79
2018-06-04T00:29:15.536Z,63.35
2018-06-04T00:30:15.449Z,63.83
2018-06-04T00:32:08.388Z,63.73
2018-06-04T00:33:08.283Z,63.73
2018-06-04T00:35:01.217Z,63.45
2018-06-04T00:36:01.149Z,63.54
2018-06-04T00:37:54.102Z,64.02
2018-06-04T00:38:53.993Z,64.12
2018-06-04T00:40:46.827Z,62.87
2018-06-04T00:41:46.729Z,63.16
2018-06-04T00:43:39.616Z,62.77
2018-06-04T00:44:39.476Z,62.77
2018-06-04T00:46:32.332Z,62.77
2018-06-04T00:47:32.241Z,62.49
2018-06-04T00:49:25.088Z,62.49
2018-06-04T00:50:24.990Z,62.01
2018-06-04T00:52:17.813Z,62.01
2018-06-04T00:53:17.721Z,62.01
2018-06-04T00:55:10.597Z,62.01
2018-06-04T00:56:10.501Z,62.49
2018-06-04T00:58:03.316Z,61.72
2018-06-04T00:59:03.235Z,61.05
2018-06-04T01:00:56.121Z,60.86
2018-06-04T01:01:55.982Z,59.91
2018-06-04T01:03:48.814Z,59.91
2018-06-04T01:04:48.730Z,60.96
2018-06-04T01:06:41.572Z,61.91
2018-06-04T01:07:41.482Z,61.72
2018-06-04T01:09:34.341Z,62.40
2018-06-04T01:10:34.219Z,61.60
2018-06-04T01:12:27.076Z,61.02
2018-06-04T01:13:26.971Z,60.10
2018-06-04T01:15:19.860Z,59.40
2018-06-04T01:16:19.715Z,59.11
2018-06-04T01:18:12.560Z,58.54
2018-06-04T01:19:12.488Z,58.92
2018-06-04T01:21:05.338Z,59.30
2018-06-04T01:22:05.222Z,58.92
2018-06-04T01:23:58.075Z,58.83
2018-06-04T01:24:57.976Z,58.83
2018-06-04T01:26:51.327Z,58.06
2018-06-04T01:27:50.717Z,58.44
2018-06-04T01:29:43.584Z,58.15
2018-06-04T01:30:43.465Z,57.58
2018-06-04T01:32:36.317Z,57.01
2018-06-04T01:33:36.290Z,57.10
2018-06-04T01:35:29.177Z,57.58
2018-06-04T01:36:29.107Z,57.68
2018-06-04T01:38:21.912Z,57.48
2018-06-04T01:39:21.825Z,57.68
2018-06-04T01:41:14.705Z,58.06
2018-06-04T01:42:14.569Z,58.54
2018-06-04T01:44:07.413Z,58.63
2018-06-04T01:45:07.322Z,58.92
2018-06-04T01:47:00.186Z,58.83
2018-06-04T01:48:00.071Z,58.34
2018-06-04T01:49:52.917Z,58.73
2018-06-04T01:50:52.822Z,58.83
2018-06-04T01:52:45.678Z,58.44
2018-06-04T01:53:45.575Z,58.34
2018-06-04T01:55:38.438Z,57.58
2018-06-04T01:56:38.340Z,57.10
2018-06-04T01:58:31.160Z,56.24
2018-06-04T01:59:31.073Z,56.15
2018-06-04T02:01:23.926Z,57.01
2018-06-04T02:02:23.835Z,57.39
2018-06-04T02:04:16.659Z,58.73
2018-06-04T02:05:16.565Z,58.44
2018-06-04T02:07:09.440Z,57.29
2018-06-04T02:08:09.329Z,57.48
2018-06-04T02:10:02.181Z,55.76
2018-06-04T02:11:02.067Z,55.96
2018-06-04T02:12:54.932Z,56.34
2018-06-04T02:13:54.822Z,56.91
2018-06-04T02:15:47.761Z,57.48
2018-06-04T02:16:47.686Z,56.91
2018-06-04T02:18:40.525Z,56.24
2018-06-04T02:19:40.424Z,56.34
2018-06-04T02:21:33.280Z,56.62
2018-06-04T02:22:33.166Z,56.62
2018-06-04T02:24:26.020Z,55.93
2018-06-04T02:25:25.913Z,56.34
2018-06-04T02:27:19.300Z,55.96
2018-06-04T02:28:18.697Z,55.67
2018-06-04T02:30:11.609Z,56.34
2018-06-04T02:31:11.538Z,55.83
2018-06-04T02:33:04.441Z,55.54
2018-06-04T02:34:04.274Z,55.67
2018-06-04T02:35:57.110Z,54.71
2018-06-04T02:36:57.036Z,54.04
2018-06-04T02:38:49.879Z,53.34
2018-06-04T02:39:49.767Z,52.89
2018-06-04T02:41:42.625Z,54.30
2018-06-04T02:42:42.528Z,54.39
2018-06-04T02:44:35.389Z,53.73
2018-06-04T02:45:35.277Z,53.06
2018-06-04T02:47:28.124Z,53.56
2018-06-04T02:48:28.009Z,53.63
2018-06-04T02:50:20.866Z,53.75
2018-06-04T02:51:20.776Z,53.34
2018-06-04T02:53:13.617Z,54.39
2018-06-04T02:54:13.543Z,54.88
2018-06-04T02:56:06.385Z,53.73
2018-06-04T02:57:06.289Z,53.73
2018-06-04T02:58:59.639Z,53.06
2018-06-04T02:59:59.548Z,53.16
2018-06-04T03:01:52.363Z,54.02
2018-06-04T03:02:52.285Z,54.11
2018-06-04T03:04:45.136Z,54.23
2018-06-04T03:05:45.054Z,53.92
2018-06-04T03:07:37.893Z,54.02
2018-06-04T03:08:37.794Z,53.82
2018-06-04T03:10:30.648Z,53.82
2018-06-04T03:11:30.522Z,53.73
2018-06-04T03:13:23.399Z,54.39
2018-06-04T03:14:23.275Z,53.92
2018-06-04T03:16:16.136Z,51.81
2018-06-04T03:17:16.018Z,51.15
2018-06-04T03:19:08.893Z,50.50
2018-06-04T03:20:08.783Z,51.24
2018-06-04T03:22:01.745Z,51.84
2018-06-04T03:23:01.644Z,52.03
2018-06-04T03:24:54.509Z,52.03
2018-06-04T03:25:54.376Z,52.03
2018-06-04T03:27:47.240Z,52.80
2018-06-04T03:28:47.123Z,52.61
2018-06-04T03:30:40.496Z,52.99
2018-06-04T03:31:40.378Z,52.80
2018-06-04T03:33:33.224Z,52.61
2018-06-04T03:34:33.143Z,51.93
2018-06-04T03:36:25.987Z,51.17
2018-06-04T03:37:25.889Z,51.46
2018-06-04T03:39:18.722Z,50.12
2018-06-04T03:40:18.632Z,49.35
2018-06-04T03:42:11.499Z,47.92
2018-06-04T03:43:11.397Z,48.21
2018-06-04T03:45:04.234Z,48.78
2018-06-04T03:46:04.142Z,49.55
2018-06-04T03:47:57.008Z,49.07
2018-06-04T03:48:56.873Z,48.68
2018-06-04T03:50:49.731Z,48.78
2018-06-04T03:51:49.634Z,48.88
2018-06-04T03:53:42.480Z,48.68
2018-06-04T03:54:42.379Z,48.78
2018-06-04T03:56:35.235Z,49.16
2018-06-04T03:57:35.126Z,49.93
2018-06-04T03:59:27.993Z,49.64
2018-06-04T04:00:27.879Z,49.64
2018-06-04T04:02:20.737Z,49.35
2018-06-04T04:03:20.629Z,49.93
2018-06-04T04:05:13.473Z,48.30
2018-06-04T04:06:13.374Z,48.30
2018-06-04T04:08:06.772Z,48.59
2018-06-04T04:09:06.648Z,48.97
2018-06-04T04:10:59.501Z,49.93
2018-06-04T04:11:59.392Z,49.57
2018-06-04T04:13:52.248Z,49.29
2018-06-04T04:14:52.142Z,49.29
2018-06-04T04:16:45.001Z,50.24
2018-06-04T04:17:44.911Z,50.62
2018-06-04T04:19:38.248Z,51.39
2018-06-04T04:20:38.144Z,52.15
2018-06-04T04:22:31.013Z,52.83
2018-06-04T04:23:30.898Z,52.15
2018-06-04T04:25:24.064Z,50.43
2018-06-04T04:26:23.970Z,50.43
2018-06-04T04:28:16.822Z,50.93
2018-06-04T04:29:16.711Z,51.10
2018-06-04T04:31:09.551Z,50.93
2018-06-04T04:32:09.462Z,51.42
2018-06-04T04:34:09.817Z,52.66
2018-06-04T04:35:09.683Z,52.56
2018-06-04T04:37:02.541Z,52.75
2018-06-04T04:38:02.429Z,52.09
2018-06-04T04:39:55.289Z,52.18
2018-06-04T04:40:55.181Z,52.09
2018-06-04T04:42:48.030Z,51.51
2018-06-04T04:43:47.928Z,51.42
2018-06-04T04:45:40.806Z,53.14
2018-06-04T04:46:40.703Z,54.19
2018-06-04T04:48:34.049Z,54.89
2018-06-04T04:49:33.940Z,54.22
2018-06-04T04:51:26.808Z,55.56
2018-06-04T04:52:26.717Z,56.23
2018-06-04T04:54:19.535Z,57.28
2018-06-04T04:55:19.438Z,55.94
2018-06-04T04:57:12.364Z,55.46
2018-06-04T04:58:12.191Z,56.13
2018-06-04T05:00:05.550Z,58.81
2018-06-04T05:01:05.447Z,58.91
2018-06-04T05:02:58.309Z,57.57
2018-06-04T05:03:58.198Z,56.45
2018-06-04T05:05:51.056Z,57.31
2018-06-04T05:06:50.960Z,58.08
2018-06-04T05:08:43.810Z,58.56
2018-06-04T05:09:43.716Z,59.04
2018-06-04T05:11:36.558Z,59.13
2018-06-04T05:12:36.453Z,59.33
2018-06-04T05:14:29.312Z,58.97
2018-06-04T05:15:29.220Z,59.74
2018-06-04T05:17:22.084Z,59.45
2018-06-04T05:18:21.973Z,60.50
2018-06-04T05:20:14.828Z,61.08
2018-06-04T05:21:14.705Z,62.13
2018-06-04T05:23:07.689Z,62.81
2018-06-04T05:24:07.452Z,62.81
2018-06-04T05:26:00.197Z,63.03
2018-06-04T05:27:00.116Z,63.70
2018-06-04T05:28:52.958Z,62.36
2018-06-04T05:29:52.843Z,62.84
2018-06-04T05:31:45.750Z,62.84
2018-06-04T05:32:45.607Z,62.36
2018-06-04T05:34:38.440Z,62.55
2018-06-04T05:35:38.351Z,65.91
2018-06-04T05:37:31.230Z,65.94
2018-06-04T05:38:31.145Z,66.49
2018-06-04T05:40:23.934Z,68.53
2018-06-04T05:41:23.863Z,68.91
2018-06-04T05:43:16.601Z,69.49
2018-06-04T05:44:16.495Z,70.45
2018-06-04T05:46:09.336Z,69.20
2018-06-04T05:47:09.254Z,68.05
2018-06-04T05:49:02.106Z,69.24
2018-06-04T05:50:02.074Z,70.39
2018-06-04T05:51:54.878Z,75.10
2018-06-04T05:52:54.743Z,76.64
2018-06-04T05:54:47.605Z,79.03
2018-06-04T05:55:47.506Z,78.27
2018-06-04T05:57:40.331Z,77.78
2018-06-04T05:58:40.235Z,79.61
2018-06-04T06:00:33.111Z,85.41
2018-06-04T06:01:32.995Z,83.87
2018-06-04T06:03:25.829Z,83.78
2018-06-04T06:04:25.750Z,82.73
2018-06-04T06:06:18.613Z,85.51
2018-06-04T06:07:18.488Z,84.55
2018-06-04T06:09:11.351Z,85.80
2018-06-04T06:10:11.246Z,85.46
2018-06-04T06:12:04.091Z,88.34
2018-06-04T06:13:03.990Z,88.73
2018-06-04T06:14:56.833Z,91.32
2018-06-04T06:15:56.739Z,91.80
2018-06-04T06:17:49.477Z,89.59
2018-06-04T06:18:49.391Z,90.36
2018-06-04T06:20:42.661Z,93.00
2018-06-04T06:21:42.545Z,91.46
2018-06-04T06:23:35.402Z,90.89
2018-06-04T06:24:35.292Z,99.73
2018-06-04T06:26:28.143Z,94.25
2018-06-04T06:27:28.063Z,96.17
2018-06-04T06:29:20.920Z,95.55
2018-06-04T06:30:20.787Z,97.67
2018-06-04T06:32:13.628Z,96.80
2018-06-04T06:33:13.569Z,94.87
2018-06-04T06:35:06.400Z,99.99
2018-06-04T06:36:06.296Z,99.99
2018-06-04T06:37:59.133Z,99.99
2018-06-04T06:38:59.045Z,99.99
2018-06-04T06:40:51.894Z,99.99
2018-06-04T06:41:51.791Z,99.99
2018-06-04T06:43:44.628Z,99.99
2018-06-04T06:44:44.552Z,99.99
2018-06-04T06:46:37.396Z,99.99
2018-06-04T06:47:37.306Z,99.99
2018-06-04T06:49:30.175Z,99.99
2018-06-04T06:50:30.036Z,99.99
2018-06-04T06:52:22.892Z,99.99
2018-06-04T06:53:22.786Z,99.99
2018-06-04T06:55:15.650Z,99.99
2018-06-04T06:56:15.547Z,99.99
2018-06-04T06:58:08.388Z,99.99
2018-06-04T06:59:08.300Z,99.99
2018-06-04T07:01:01.156Z,99.99
2018-06-04T07:02:01.115Z,99.99
2018-06-04T07:03:53.905Z,99.99
2018-06-04T07:04:53.790Z,99.99
2018-06-04T07:06:46.636Z,99.99
2018-06-04T07:07:46.536Z,99.99
2018-06-04T07:09:39.389Z,99.99
2018-06-04T07:10:39.294Z,99.99
2018-06-04T07:12:32.152Z,99.99
2018-06-04T07:13:32.041Z,99.99
2018-06-04T07:15:24.905Z,99.99
2018-06-04T07:16:24.794Z,99.99
2018-06-04T07:18:17.629Z,99.99
2018-06-04T07:19:17.534Z,99.99
2018-06-04T07:21:10.394Z,99.99
2018-06-04T07:22:10.290Z,99.99
2018-06-04T07:24:03.135Z,99.99
2018-06-04T07:25:03.042Z,99.99
2018-06-04T07:26:55.901Z,99.99
2018-06-04T07:27:55.785Z,99.99
2018-06-04T07:29:48.628Z,99.99
2018-06-04T07:30:48.530Z,99.99
2018-06-04T07:32:41.391Z,99.99
2018-06-04T07:33:41.282Z,99.99
2018-06-04T07:35:34.165Z,99.99
2018-06-04T07:36:34.064Z,99.99
2018-06-04T07:38:26.885Z,99.99
2018-06-04T07:39:26.790Z,99.99
2018-06-04T07:41:19.683Z,99.99
2018-06-04T07:42:19.545Z,99.99
2018-06-04T07:44:12.402Z,99.99
2018-06-04T07:45:12.280Z,99.99
2018-06-04T07:47:05.154Z,99.99
2018-06-04T07:48:05.053Z,99.99
2018-06-04T07:49:57.930Z,99.99
2018-06-04T07:50:57.783Z,99.99
2018-06-04T07:52:50.639Z,99.99
2018-06-04T07:53:50.546Z,99.99
2018-06-04T07:55:43.365Z,99.99
2018-06-04T07:56:43.286Z,99.99
2018-06-04T07:58:36.215Z,99.99
2018-06-04T07:59:36.034Z,99.99
2018-06-04T08:01:28.871Z,99.99
2018-06-04T08:02:28.786Z,99.99
2018-06-04T08:04:21.685Z,99.99
2018-06-04T08:05:21.529Z,99.99
2018-06-04T08:07:14.429Z,99.99
2018-06-04T08:08:14.281Z,99.99
2018-06-04T08:10:07.203Z,99.99
2018-06-04T08:11:07.029Z,99.99
2018-06-04T08:12:59.891Z,99.99
2018-06-04T08:13:59.786Z,99.99
2018-06-04T08:15:52.639Z,99.99
2018-06-04T08:16:52.523Z,99.99
2018-06-04T08:18:45.397Z,99.99
2018-06-04T08:19:45.279Z,99.99
2018-06-04T08:21:38.159Z,99.99
2018-06-04T08:22:38.028Z,99.99
2018-06-04T08:24:30.883Z,99.99
2018-06-04T08:25:30.781Z,99.99
2018-06-04T08:27:23.638Z,99.99
2018-06-04T08:28:23.539Z,99.99
2018-06-04T08:30:16.380Z,99.99
2018-06-04T08:31:16.278Z,99.99
2018-06-04T08:33:09.141Z,99.99
2018-06-04T08:34:09.051Z,99.99
2018-06-04T08:36:02.403Z,99.99
2018-06-04T08:37:02.189Z,99.99
2018-06-04T08:38:55.048Z,99.99
2018-06-04T08:39:54.944Z,99.99
2018-06-04T08:41:47.792Z,99.99
2018-06-04T08:42:47.687Z,99.99
2018-06-04T08:44:40.564Z,99.99
2018-06-04T08:45:40.465Z,99.99
2018-06-04T08:47:33.297Z,99.99
2018-06-04T08:48:33.195Z,99.99
2018-06-04T08:50:26.025Z,99.99
2018-06-04T08:51:25.944Z,99.99
2018-06-04T08:53:18.787Z,99.99
2018-06-04T08:54:18.702Z,99.99
2018-06-04T08:56:11.551Z,99.99
2018-06-04T08:57:11.434Z,99.99
2018-06-04T08:59:04.302Z,99.99
2018-06-04T09:00:04.209Z,99.99
2018-06-04T09:01:57.024Z,99.99
2018-06-04T09:02:56.946Z,99.99
2018-06-04T09:04:49.814Z,99.99
2018-06-04T09:05:49.682Z,99.99
2018-06-04T09:07:42.556Z,99.99
2018-06-04T09:08:42.443Z,99.99
2018-06-04T09:10:35.270Z,99.99
2018-06-04T09:11:35.185Z,99.99
2018-06-04T09:13:28.061Z,99.99
2018-06-04T09:14:27.941Z,99.99
2018-06-04T09:16:20.801Z,99.99
2018-06-04T09:17:20.681Z,99.99
2018-06-04T09:19:13.557Z,99.99
2018-06-04T09:20:13.442Z,99.99
2018-06-04T09:22:06.359Z,99.99
2018-06-04T09:23:06.209Z,99.99
2018-06-04T09:24:59.016Z,99.99
2018-06-04T09:25:58.935Z,99.99
2018-06-04T09:27:51.782Z,99.99
2018-06-04T09:28:51.683Z,99.99
2018-06-04T09:30:44.545Z,99.99
2018-06-04T09:31:44.432Z,99.99
2018-06-04T09:33:37.295Z,99.99
2018-06-04T09:34:37.183Z,99.99
2018-06-04T09:36:30.035Z,99.99
2018-06-04T09:37:29.941Z,99.99
2018-06-04T09:39:22.833Z,99.99
2018-06-04T09:40:22.685Z,99.99
2018-06-04T09:42:15.549Z,99.99
2018-06-04T09:43:15.439Z,99.99
2018-06-04T09:45:08.265Z,99.99
2018-06-04T09:46:08.175Z,99.99
2018-06-04T09:48:01.043Z,99.99
2018-06-04T09:49:00.939Z,99.99
2018-06-04T09:50:53.801Z,99.99
2018-06-04T09:51:53.684Z,99.99
2018-06-04T09:53:46.531Z,99.99
2018-06-04T09:54:46.433Z,99.99
2018-06-04T09:56:39.773Z,99.99
2018-06-04T09:57:39.681Z,99.99
2018-06-04T09:59:32.546Z,99.99
2018-06-04T10:00:32.465Z,99.99
2018-06-04T10:02:25.306Z,99.99
2018-06-04T10:03:25.202Z,99.99
2018-06-04T10:05:18.040Z,99.99
2018-06-04T10:06:17.943Z,99.99
2018-06-04T10:08:10.803Z,99.99
2018-06-04T10:09:10.709Z,99.99
2018-06-04T10:11:04.060Z,99.99
2018-06-04T10:12:03.941Z,99.99
2018-06-04T10:13:56.899Z,99.99
2018-06-04T10:14:56.802Z,99.99
2018-06-04T10:16:49.683Z,99.99
2018-06-04T10:17:49.569Z,99.99
2018-06-04T10:19:42.402Z,99.99
2018-06-04T10:20:42.298Z,99.99
2018-06-04T10:22:35.202Z,99.99
2018-06-04T10:23:35.052Z,99.99
2018-06-04T10:25:27.900Z,99.99
2018-06-04T10:26:27.806Z,99.99
2018-06-04T10:28:20.661Z,99.99
2018-06-04T10:29:20.560Z,99.99
2018-06-04T10:31:13.427Z,99.99
2018-06-04T10:32:13.305Z,99.99
2018-06-04T10:34:06.209Z,98.49
2018-06-04T10:35:06.051Z,98.15
2018-06-04T10:36:58.900Z,99.31
2018-06-04T10:37:58.826Z,98.63
2018-06-04T10:39:51.773Z,97.71
2018-06-04T10:40:51.669Z,99.99
2018-06-04T10:42:44.584Z,99.99
2018-06-04T10:43:44.495Z,99.99
2018-06-04T10:45:37.471Z,99.99
2018-06-04T10:46:37.380Z,99.99
2018-06-04T10:48:30.334Z,99.99
2018-06-04T10:49:30.206Z,99.99
2018-06-04T10:51:23.055Z,99.99
2018-06-04T10:52:22.960Z,99.99
2018-06-04T10:54:16.310Z,99.99
2018-06-04T10:55:16.229Z,99.99
2018-06-04T10:57:09.181Z,99.99
2018-06-04T10:58:09.085Z,99.99
2018-06-04T11:00:02.018Z,99.99
2018-06-04T11:01:01.918Z,99.99
2018-06-04T11:02:54.781Z,99.99
2018-06-04T11:03:54.688Z,97.81
2018-06-04T11:05:47.532Z,95.43
2018-06-04T11:06:47.435Z,98.73
2018-06-04T11:08:40.258Z,98.54
2018-06-04T11:09:40.178Z,93.88
2018-06-04T11:11:33.553Z,92.05
2018-06-04T11:12:33.426Z,93.50
2018-06-04T11:14:26.265Z,93.98
2018-06-04T11:15:26.207Z,92.68
2018-06-04T11:17:19.041Z,95.58
2018-06-04T11:18:18.936Z,94.81
2018-06-04T11:20:11.794Z,92.09
2018-06-04T11:21:11.690Z,89.86
2018-06-04T11:23:04.587Z,84.38
2018-06-04T11:24:04.440Z,81.85
2018-06-04T11:25:57.331Z,83.74
2018-06-04T11:26:57.173Z,87.04
2018-06-04T11:28:50.016Z,83.37
2018-06-04T11:29:49.940Z,88.51
2018-06-04T11:31:42.792Z,87.34
2018-06-04T11:32:42.692Z,86.37
2018-06-04T11:34:35.552Z,85.46
2018-06-04T11:35:35.436Z,87.20
2018-06-04T11:37:28.333Z,87.63
2018-06-04T11:38:28.183Z,86.91
2018-06-04T11:40:21.468Z,88.42
2018-06-04T11:41:21.340Z,89.39
2018-06-04T11:43:14.175Z,88.76
2018-06-04T11:44:14.107Z,91.56
2018-06-04T11:46:06.946Z,89.73
2018-06-04T11:47:06.837Z,90.21
2018-06-04T11:48:59.671Z,94.67
2018-06-04T11:49:59.597Z,96.12
2018-06-04T11:51:52.446Z,96.99
2018-06-04T11:52:52.345Z,97.18
2018-06-04T11:54:45.173Z,95.83
2018-06-04T11:55:45.093Z,91.96
2018-06-04T11:57:38.158Z,92.87
2018-06-04T11:58:37.854Z,91.52
2018-06-04T12:00:30.782Z,91.75
2018-06-04T12:01:31.528Z,90.88
2018-06-04T12:03:24.647Z,89.14
2018-06-04T12:04:24.229Z,90.98
2018-06-04T12:06:16.599Z,91.95
2018-06-04T12:07:16.498Z,94.95
2018-06-04T12:09:09.439Z,90.30
2018-06-04T12:10:09.367Z,91.03
2018-06-04T12:12:02.304Z,93.99
2018-06-04T12:13:02.214Z,95.64
2018-06-04T12:14:55.147Z,96.75
2018-06-04T12:15:55.047Z,97.42
2018-06-04T12:17:48.418Z,95.64
2018-06-04T12:18:48.312Z,97.28
2018-06-04T12:20:41.276Z,97.57
2018-06-04T12:21:41.168Z,96.45
2018-06-04T12:23:34.128Z,95.92
2018-06-04T12:24:34.009Z,95.78
2018-06-04T12:26:26.960Z,97.42
2018-06-04T12:27:26.876Z,99.07
2018-06-04T12:29:19.816Z,99.36
2018-06-04T12:30:19.732Z,98.25
2018-06-04T12:32:12.658Z,96.50
2018-06-04T12:33:12.580Z,99.89
2018-06-04T12:35:05.532Z,95.29
2018-06-04T12:36:05.424Z,93.40
2018-06-04T12:37:58.400Z,93.11
2018-06-04T12:38:58.286Z,90.83
2018-06-04T12:40:51.207Z,81.91
2018-06-04T12:41:51.130Z,80.17
2018-06-04T12:43:44.103Z,81.82
2018-06-04T12:44:44.015Z,83.89
2018-06-04T12:46:36.918Z,83.31
2018-06-04T12:47:36.837Z,80.21
2018-06-04T12:49:29.701Z,84.92
2018-06-04T12:50:29.579Z,87.05
2018-06-04T12:52:22.428Z,83.62
2018-06-04T12:53:22.331Z,84.58
2018-06-04T12:55:15.178Z,85.50
2018-06-04T12:56:15.132Z,84.58
2018-06-04T12:58:07.933Z,86.86
2018-06-04T12:59:07.851Z,88.85
2018-06-04T13:01:00.664Z,92.49
2018-06-04T13:02:00.623Z,92.33
2018-06-04T13:03:53.430Z,91.52
2018-06-04T13:04:53.389Z,90.64
2018-06-04T13:06:46.165Z,91.37
2018-06-04T13:07:46.090Z,89.97
2018-06-04T13:09:38.934Z,90.78
2018-06-04T13:10:38.837Z,89.82
2018-06-04T13:12:31.689Z,89.82
2018-06-04T13:13:31.582Z,90.98
2018-06-04T13:15:24.940Z,91.95
2018-06-04T13:16:24.846Z,90.20
2018-06-04T13:18:17.694Z,91.47
2018-06-04T13:19:17.594Z,91.08
2018-06-04T13:21:10.428Z,91.22
2018-06-04T13:22:10.355Z,90.06
2018-06-04T13:24:03.193Z,86.18
2018-06-04T13:25:03.095Z,85.69
2018-06-04T13:26:55.950Z,83.47
2018-06-04T13:27:55.840Z,81.23
2018-06-04T13:29:48.719Z,85.75
2018-06-04T13:30:48.590Z,82.30
2018-06-04T13:32:41.451Z,80.21
2018-06-04T13:33:41.364Z,79.76
2018-06-04T13:35:34.168Z,77.47
2018-06-04T13:36:34.090Z,77.37
2018-06-04T13:38:26.964Z,78.15
2018-06-04T13:39:26.835Z,80.29
2018-06-04T13:41:19.696Z,77.86
2018-06-04T13:42:19.600Z,79.37
2018-06-04T13:44:12.441Z,79.76
2018-06-04T13:45:12.334Z,79.47
2018-06-04T13:47:05.200Z,80.21
2018-06-04T13:48:05.086Z,80.36
2018-06-04T13:49:57.933Z,84.20
2018-06-04T13:50:57.841Z,84.39
2018-06-04T13:52:50.689Z,84.24
2018-06-04T13:53:50.590Z,82.59
2018-06-04T13:55:43.420Z,81.23
2018-06-04T13:56:43.331Z,80.79
2018-06-04T13:58:36.270Z,78.44
2018-06-04T13:59:36.095Z,79.61
2018-06-04T14:01:29.341Z,80.38
2018-06-04T14:02:29.247Z,80.29
2018-06-04T14:04:22.089Z,78.40
2018-06-04T14:05:21.992Z,79.37
2018-06-04T14:07:14.825Z,80.09
2018-06-04T14:08:14.775Z,78.54
2018-06-04T14:10:07.600Z,78.02
2018-06-04T14:11:07.488Z,80.63
2018-06-04T14:13:00.325Z,78.94
2018-06-04T14:14:00.271Z,79.30
2018-06-04T14:15:53.087Z,77.36
2018-06-04T14:16:52.995Z,77.36
2018-06-04T14:18:45.850Z,79.63
2018-06-04T14:19:45.764Z,78.27
2018-06-04T14:21:38.578Z,76.40
2018-06-04T14:22:38.498Z,75.30
2018-06-04T14:24:31.353Z,77.26
2018-06-04T14:25:31.241Z,77.94
2018-06-04T14:27:24.091Z,77.20
2018-06-04T14:28:23.994Z,75.88
2018-06-04T14:30:17.248Z,76.07
2018-06-04T14:31:17.387Z,77.08
2018-06-04T14:33:09.978Z,74.71
2018-06-04T14:34:09.896Z,76.42
2018-06-04T14:36:02.753Z,80.07
2018-06-04T14:37:02.661Z,79.97
2018-06-04T14:38:55.504Z,79.82
2018-06-04T14:39:55.409Z,79.43
2018-06-04T14:41:48.253Z,76.23
2018-06-04T14:42:48.150Z,77.84
2018-06-04T14:44:40.997Z,77.45
2018-06-04T14:45:40.896Z,77.26
2018-06-04T14:47:33.746Z,75.98
2018-06-04T14:48:33.643Z,75.68
2018-06-04T14:50:26.908Z,73.58
2018-06-04T14:51:26.810Z,73.36
2018-06-04T14:53:20.202Z,73.91
2018-06-04T14:54:20.058Z,73.46
2018-06-04T14:56:12.952Z,74.11
2018-06-04T14:57:12.828Z,74.37
2018-06-04T14:59:05.659Z,76.60
2018-06-04T15:00:05.571Z,75.34
2018-06-04T15:01:58.450Z,75.31
2018-06-04T15:02:58.320Z,74.79
2018-06-04T15:04:51.152Z,76.21
2018-06-04T15:05:51.062Z,77.37
2018-06-04T15:07:43.929Z,78.05
2018-06-04T15:08:43.815Z,76.95
2018-06-04T15:10:36.681Z,76.11
2018-06-04T15:11:36.581Z,77.14
2018-06-04T15:13:29.446Z,80.75
2018-06-04T15:14:29.305Z,80.85
2018-06-04T15:16:22.157Z,81.52
2018-06-04T15:17:22.060Z,80.50
2018-06-04T15:19:14.890Z,78.15
2018-06-04T15:20:14.830Z,77.86
2018-06-04T15:22:07.684Z,76.34
2018-06-04T15:23:07.560Z,75.27
2018-06-04T15:25:00.394Z,74.63
2018-06-04T15:26:00.317Z,73.46
2018-06-04T15:27:53.170Z,70.87
2018-06-04T15:28:53.065Z,69.90
2018-06-04T15:30:46.551Z,69.67
2018-06-04T15:31:45.821Z,71.42
2018-06-04T15:33:38.659Z,69.48
2018-06-04T15:34:38.569Z,68.74
2018-06-04T15:36:31.931Z,68.64
2018-06-04T15:37:31.824Z,71.33
2018-06-04T15:39:24.656Z,72.65
2018-06-04T15:40:25.313Z,73.75
2018-06-04T15:42:17.423Z,76.60
2018-06-04T15:43:17.325Z,75.27
2018-06-04T15:45:10.157Z,74.11
2018-06-04T15:46:10.075Z,72.88
2018-06-04T15:48:02.934Z,71.46
2018-06-04T15:49:02.821Z,71.66
2018-06-04T15:50:55.652Z,68.87
2018-06-04T15:51:55.567Z,67.44
2018-06-04T15:53:48.451Z,66.50
2018-06-04T15:54:48.339Z,65.07
2018-06-04T15:56:41.371Z,64.65
2018-06-04T15:57:41.277Z,65.40
2018-06-04T15:59:34.117Z,65.01
2018-06-04T16:00:34.025Z,65.14
2018-06-04T16:02:26.874Z,65.11
2018-06-04T16:03:26.770Z,64.81
2018-06-04T16:05:19.612Z,66.08
2018-06-04T16:06:19.521Z,67.18
2018-06-04T16:08:12.405Z,69.09
2018-06-04T16:09:12.273Z,67.96
2018-06-04T16:11:05.104Z,68.70
2018-06-04T16:12:05.614Z,68.44
2018-06-04T16:13:58.396Z,67.02
2018-06-04T16:14:58.282Z,67.02
2018-06-04T16:16:51.127Z,71.06
2018-06-04T16:17:51.046Z,71.32
2018-06-04T16:19:43.878Z,73.86
2018-06-04T16:20:43.779Z,74.23
2018-06-04T16:22:36.637Z,72.77
2018-06-04T16:23:36.531Z,73.84
2018-06-04T16:25:29.401Z,71.38
2018-06-04T16:26:29.282Z,72.58
2018-06-04T16:28:22.230Z,70.32
2018-06-04T16:29:22.154Z,70.12
2018-06-04T16:31:14.970Z,70.00
2018-06-04T16:32:14.886Z,70.25
2018-06-04T16:34:07.730Z,72.58
2018-06-04T16:35:07.630Z,70.73
2018-06-04T16:37:00.455Z,70.90
2018-06-04T16:38:00.438Z,71.32
2018-06-04T16:39:53.230Z,69.80
2018-06-04T16:40:53.135Z,69.35
2018-06-04T16:42:46.001Z,67.44
2018-06-04T16:43:45.878Z,66.69
2018-06-04T16:45:38.755Z,65.63
2018-06-04T16:46:38.634Z,66.11
2018-06-04T16:48:31.484Z,65.04
2018-06-04T16:49:31.398Z,65.11
2018-06-04T16:51:24.233Z,65.43
2018-06-04T16:52:24.147Z,64.75
2018-06-04T16:54:16.999Z,64.85
2018-06-04T16:55:16.894Z,65.30
2018-06-04T16:57:09.742Z,65.98
2018-06-04T16:58:09.635Z,66.27
2018-06-04T17:00:02.484Z,66.40
2018-06-04T17:01:02.383Z,66.69
2018-06-04T17:02:55.237Z,65.04
2018-06-04T17:03:55.130Z,67.15
2018-06-04T17:05:47.954Z,66.14
2018-06-04T17:06:47.877Z,65.17
2018-06-04T17:08:40.753Z,65.08
2018-06-04T17:09:40.626Z,64.78
2018-06-04T17:11:33.477Z,63.71
2018-06-04T17:12:33.381Z,64.46
2018-06-04T17:14:26.218Z,64.53
2018-06-04T17:15:26.172Z,66.08
2018-06-04T17:17:18.964Z,66.14
2018-06-04T17:18:18.894Z,66.44
2018-06-04T17:20:11.747Z,66.05
2018-06-04T17:21:11.636Z,65.04
2018-06-04T17:23:04.470Z,63.16
2018-06-04T17:24:04.376Z,61.41
2018-06-04T17:25:57.232Z,62.06
2018-06-04T17:26:57.125Z,63.13
2018-06-04T17:28:50.498Z,63.97
2018-06-04T17:29:50.392Z,64.36
2018-06-04T17:31:43.227Z,64.33
2018-06-04T17:32:43.166Z,64.53
2018-06-04T17:34:35.999Z,64.59
2018-06-04T17:35:35.900Z,65.92
2018-06-04T17:37:28.718Z,68.44
2018-06-04T17:38:28.653Z,67.21
2018-06-04T17:40:21.483Z,68.25
2018-06-04T17:41:21.388Z,68.35
2018-06-04T17:43:14.250Z,67.50
2018-06-04T17:44:14.142Z,66.47
2018-06-04T17:46:06.986Z,65.23
2018-06-04T17:47:06.905Z,65.08
2018-06-04T17:48:59.733Z,66.08
2018-06-04T17:49:59.683Z,65.59
2018-06-04T17:51:52.479Z,65.59
2018-06-04T17:52:52.408Z,66.17
2018-06-04T17:54:45.742Z,66.44
2018-06-04T17:55:45.650Z,67.50
2018-06-04T17:57:38.481Z,68.05
2018-06-04T17:58:38.400Z,69.09
2018-06-04T18:00:31.246Z,70.25
2018-06-04T18:01:31.180Z,70.06
2018-06-04T18:03:23.992Z,70.51
2018-06-04T18:04:23.920Z,70.80
2018-06-04T18:06:16.727Z,72.02
2018-06-04T18:07:16.654Z,72.89
2018-06-04T18:09:09.493Z,76.12
2018-06-04T18:10:09.405Z,78.83
2018-06-04T18:12:02.256Z,81.27
2018-06-04T18:13:02.151Z,82.62
2018-06-04T18:14:55.013Z,86.30
2018-06-04T18:15:54.910Z,87.13
2018-06-04T18:17:47.735Z,87.27
2018-06-04T18:18:47.668Z,87.75
2018-06-04T18:20:40.481Z,90.80
2018-06-04T18:21:40.395Z,92.21
2018-06-04T18:23:33.782Z,93.70
2018-06-04T18:24:33.797Z,94.76
2018-06-04T18:26:26.182Z,95.06
2018-06-04T18:27:26.105Z,95.93
2018-06-04T18:29:20.415Z,97.23
2018-06-04T18:30:20.618Z,98.44
2018-06-04T18:32:14.843Z,99.99